Time;durP1;ratioP1;P1;durP2;ratioP2;P2;SDS_P1;SDS_P2;PMS_P1;PMS_P2;Temp;Humidity;BMP_temperature;BMP_pressure;BME280_temperature;BME280_humidity;BME280_pressure;Samples;Min_cycle;Max_cycle;Signal;HPM_P1;HPM_P2
2021/04/09 00:02:03;;;;;;;14.63;9.10;;;;;;;;;;5092500;28;20174;-54
2021/04/09 00:04:29;;;;;;;12.50;8.48;;;;;;;;;;5092320;28;20402;-54
2021/04/09 00:06:55;;;;;;;11.88;9.07;;;;;;;;;;5092095;28;20193;-54
2021/04/09 00:09:21;;;;;;;17.63;8.97;;;;;;;;;;5092169;28;20252;-54
2021/04/09 00:11:47;;;;;;;12.80;8.77;;;;;;;;;;5092298;28;20482;-54
2021/04/09 00:14:14;;;;;;;12.07;8.05;;;;;;;;;;5092138;28;20163;-55
2021/04/09 00:16:40;;;;;;;13.75;9.25;;;;;;;;;;5092010;28;20201;-56
2021/04/09 00:19:07;;;;;;;13.48;9.32;;;;;;;;;;5092192;28;20683;-54
2021/04/09 00:21:33;;;;;;;13.98;8.50;;;;;;;;;;5091977;28;20679;-54
2021/04/09 00:24:00;;;;;;;9.88;8.50;;;;;;;;;;5091120;28;20545;-54
2021/04/09 00:26:27;;;;;;;11.30;8.25;;;;;;;;;;5091488;28;20813;-53
2021/04/09 00:28:53;;;;;;;12.15;9.00;;;;;;;;;;5091977;28;20185;-57
2021/04/09 00:31:19;;;;;;;17.70;10.07;;;;;;;;;;5091885;28;20625;-58
2021/04/09 00:33:45;;;;;;;13.77;9.00;;;;;;;;;;5091960;28;20403;-54
2021/04/09 00:36:11;;;;;;;16.37;10.00;;;;;;;;;;5091428;28;20482;-54
2021/04/09 00:38:37;;;;;;;14.67;8.37;;;;;;;;;;5091712;28;20428;-54
2021/04/09 00:41:03;;;;;;;14.13;8.07;;;;;;;;;;5091625;28;20889;-54
2021/04/09 00:43:30;;;;;;;9.95;8.10;;;;;;;;;;5091948;28;20894;-57
2021/04/09 00:45:56;;;;;;;14.40;8.98;;;;;;;;;;5091283;28;20254;-54
2021/04/09 00:48:22;;;;;;;14.60;9.00;;;;;;;;;;5091634;28;20239;-54
2021/04/09 00:50:48;;;;;;;14.30;8.60;;;;;;;;;;5090098;28;20403;-55
2021/04/09 00:53:16;;;;;;;9.50;8.60;;;;;;;;;;5091529;28;20429;-55
2021/04/09 00:55:42;;;;;;;16.00;9.45;;;;;;;;;;5091233;28;20162;-54
2021/04/09 00:58:09;;;;;;;11.38;8.40;;;;;;;;;;5091325;28;20221;-55
2021/04/09 01:00:35;;;;;;;16.15;7.90;;;;;;;;;;5090970;28;20168;-57
2021/04/09 01:03:01;;;;;;;16.77;8.47;;;;;;;;;;5090865;28;20180;-57
2021/04/09 01:05:27;;;;;;;13.32;8.77;;;;;;;;;;5090588;28;20492;-57
2021/04/09 01:07:53;;;;;;;13.07;8.03;;;;;;;;;;5090825;28;20277;-57
2021/04/09 01:10:19;;;;;;;15.20;8.33;;;;;;;;;;5090016;28;20963;-54
2021/04/09 01:12:46;;;;;;;13.05;8.30;;;;;;;;;;5091118;28;20907;-55
2021/04/09 01:15:13;;;;;;;12.45;8.35;;;;;;;;;;5090983;28;20220;-54
2021/04/09 01:17:41;;;;;;;13.55;7.65;;;;;;;;;;5090954;28;20161;-57
2021/04/09 01:20:26;;;;;;;10.18;7.07;;;;;;;;;;5091136;28;20175;-57
2021/04/09 01:23:11;;;;;;;9.23;7.22;;;;;;;;;;5089939;28;20582;-53
2021/04/09 01:25:56;;;;;;;8.35;7.07;;;;;;;;;;5090845;28;20176;-58
2021/04/09 01:28:42;;;;;;;10.02;8.23;;;;;;;;;;5089815;28;20576;-55
2021/04/09 01:31:14;;;;;;;16.08;9.02;;;;;;;;;;5069586;28;20591;-54
2021/04/09 01:33:43;;;;;;;8.52;7.05;;;;;;;;;;5090577;28;20169;-54
2021/04/09 01:36:12;;;;;;;13.35;7.40;;;;;;;;;;5090771;28;20250;-53
2021/04/09 01:38:42;;;;;;;13.02;8.10;;;;;;;;;;5091401;28;20189;-55
2021/04/09 01:41:10;;;;;;;13.25;7.18;;;;;;;;;;5091157;28;20169;-55
2021/04/09 01:43:36;;;;;;;11.27;7.43;;;;;;;;;;5090950;28;20868;-55
2021/04/09 01:46:03;;;;;;;13.85;8.10;;;;;;;;;;5090829;28;20170;-55
2021/04/09 01:48:31;;;;;;;9.85;6.97;;;;;;;;;;5091010;28;20177;-55
2021/04/09 01:50:57;;;;;;;12.40;7.00;;;;;;;;;;5091094;28;20161;-55
2021/04/09 01:53:25;;;;;;;10.45;6.90;;;;;;;;;;5090968;28;20166;-55
2021/04/09 01:55:52;;;;;;;9.68;6.95;;;;;;;;;;5090663;28;20223;-55
2021/04/09 01:58:18;;;;;;;10.70;7.30;;;;;;;;;;5090524;28;20212;-55
2021/04/09 02:00:44;;;;;;;12.07;7.25;;;;;;;;;;5090800;28;20173;-54
2021/04/09 02:03:11;;;;;;;14.25;7.55;;;;;;;;;;5090685;28;20193;-54
2021/04/09 02:05:37;;;;;;;11.82;6.82;;;;;;;;;;5090518;28;20170;-55
2021/04/09 02:08:04;;;;;;;12.15;6.80;;;;;;;;;;5090598;28;20208;-55
2021/04/09 02:10:30;;;;;;;10.02;6.97;;;;;;;;;;5090594;28;20691;-54
2021/04/09 02:12:56;;;;;;;9.35;7.47;;;;;;;;;;5090768;28;20727;-55
2021/04/09 02:15:24;;;;;;;14.93;8.20;;;;;;;;;;5090417;28;20174;-55
2021/04/09 02:17:50;;;;;;;9.23;6.30;;;;;;;;;;5090525;28;20161;-55
2021/04/09 02:20:17;;;;;;;8.50;6.95;;;;;;;;;;5090444;28;20243;-54
2021/04/09 02:22:44;;;;;;;12.88;7.30;;;;;;;;;;5090586;28;20169;-55
2021/04/09 02:25:10;;;;;;;8.18;6.60;;;;;;;;;;5090107;28;20173;-55
2021/04/09 02:27:37;;;;;;;8.73;6.82;;;;;;;;;;5090445;28;20203;-55
2021/04/09 02:30:07;;;;;;;7.88;7.07;;;;;;;;;;5090566;28;20185;-55
2021/04/09 02:32:33;;;;;;;11.02;5.82;;;;;;;;;;5090515;28;20165;-55
2021/04/09 02:34:59;;;;;;;9.93;6.10;;;;;;;;;;5090154;28;20170;-55
2021/04/09 02:37:25;;;;;;;14.80;6.47;;;;;;;;;;5090381;28;20403;-55
2021/04/09 02:39:54;;;;;;;10.85;6.20;;;;;;;;;;5090166;28;20510;-55
2021/04/09 02:42:20;;;;;;;10.32;7.05;;;;;;;;;;5090371;28;20253;-56
2021/04/09 02:44:46;;;;;;;7.07;6.45;;;;;;;;;;5090160;28;20173;-55
2021/04/09 02:47:16;;;;;;;10.00;6.45;;;;;;;;;;5092361;28;20200;-55
2021/04/09 02:49:43;;;;;;;9.82;6.18;;;;;;;;;;5093664;28;20215;-56
2021/04/09 02:52:14;;;;;;;10.30;6.22;;;;;;;;;;5093903;28;20162;-55
2021/04/09 02:54:41;;;;;;;12.18;7.05;;;;;;;;;;5094009;28;20165;-56
2021/04/09 02:57:09;;;;;;;6.90;6.07;;;;;;;;;;5093496;28;20174;-55
2021/04/09 02:59:35;;;;;;;9.30;6.68;;;;;;;;;;5093736;28;20208;-56
2021/04/09 03:02:01;;;;;;;8.00;6.15;;;;;;;;;;5093536;28;20186;-55
2021/04/09 03:04:29;;;;;;;13.63;6.68;;;;;;;;;;5093668;28;20208;-55
2021/04/09 03:06:55;;;;;;;12.50;6.80;;;;;;;;;;5093225;28;20211;-55
2021/04/09 03:09:21;;;;;;;10.43;7.00;;;;;;;;;;5093524;28;20262;-56
2021/04/09 03:11:47;;;;;;;8.70;6.63;;;;;;;;;;5093538;28;20165;-55
2021/04/09 03:14:13;;;;;;;9.93;7.37;;;;;;;;;;5093470;28;20526;-56
2021/04/09 03:16:43;;;;;;;7.97;6.53;;;;;;;;;;5093010;28;20790;-56
2021/04/09 03:19:09;;;;;;;9.05;6.93;;;;;;;;;;5093206;28;20420;-55
2021/04/09 03:21:35;;;;;;;10.02;6.45;;;;;;;;;;5093201;28;20193;-55
2021/04/09 03:24:01;;;;;;;11.57;6.40;;;;;;;;;;5093328;28;20205;-54
2021/04/09 03:26:27;;;;;;;14.43;7.90;;;;;;;;;;5092758;28;20454;-55
2021/04/09 03:28:53;;;;;;;10.10;7.20;;;;;;;;;;5093134;28;20770;-55
2021/04/09 03:31:19;;;;;;;10.30;7.47;;;;;;;;;;5093075;28;20821;-55
2021/04/09 03:33:45;;;;;;;8.37;6.93;;;;;;;;;;5092984;28;20435;-56
2021/04/09 03:36:10;;;;;;;7.90;6.53;;;;;;;;;;5092694;28;20479;-56
2021/04/09 03:38:36;;;;;;;10.40;6.40;;;;;;;;;;5092972;28;20419;-55
2021/04/09 03:41:02;;;;;;;16.17;8.33;;;;;;;;;;5093084;28;20905;-56
2021/04/09 03:43:28;;;;;;;11.13;7.38;;;;;;;;;;5092902;28;20478;-55
2021/04/09 03:45:54;;;;;;;16.73;7.30;;;;;;;;;;5092808;28;20799;-55
2021/04/09 03:48:20;;;;;;;14.10;8.15;;;;;;;;;;5092553;28;20454;-54
2021/04/09 03:50:46;;;;;;;13.47;7.50;;;;;;;;;;5092913;28;20527;-55
2021/04/09 03:53:12;;;;;;;17.10;7.47;;;;;;;;;;5092816;28;20478;-55
2021/04/09 03:55:38;;;;;;;11.47;7.33;;;;;;;;;;5092747;28;20393;-54
2021/04/09 03:58:04;;;;;;;13.00;7.97;;;;;;;;;;5092496;28;20415;-55
2021/04/09 04:00:30;;;;;;;11.07;6.93;;;;;;;;;;5092981;28;20410;-55
2021/04/09 04:02:56;;;;;;;13.15;7.30;;;;;;;;;;5092484;28;20474;-55
2021/04/09 04:05:22;;;;;;;10.97;7.47;;;;;;;;;;5092351;28;20675;-55
2021/04/09 04:07:48;;;;;;;8.57;7.20;;;;;;;;;;5092268;28;20439;-55
2021/04/09 04:10:15;;;;;;;9.90;6.70;;;;;;;;;;5092431;28;20169;-55
2021/04/09 04:12:40;;;;;;;8.52;7.40;;;;;;;;;;5092325;28;20185;-55
2021/04/09 04:15:07;;;;;;;11.57;7.77;;;;;;;;;;5092084;28;20626;-55
2021/04/09 04:17:33;;;;;;;9.73;7.05;;;;;;;;;;5092217;28;20906;-55
2021/04/09 04:19:59;;;;;;;12.50;7.07;;;;;;;;;;5092104;28;20190;-55
2021/04/09 04:22:25;;;;;;;9.68;7.65;;;;;;;;;;5092243;28;20169;-55
2021/04/09 04:24:51;;;;;;;11.75;7.07;;;;;;;;;;5091991;28;20165;-55
2021/04/09 04:27:17;;;;;;;12.57;7.80;;;;;;;;;;5091767;28;20201;-55
2021/04/09 04:29:43;;;;;;;9.50;6.77;;;;;;;;;;5091841;28;20192;-55
2021/04/09 04:32:09;;;;;;;16.30;7.50;;;;;;;;;;5091899;28;20399;-55
2021/04/09 04:34:35;;;;;;;12.70;7.77;;;;;;;;;;5091834;28;20396;-54
2021/04/09 04:37:01;;;;;;;10.07;6.80;;;;;;;;;;5091629;28;20456;-54
2021/04/09 04:39:27;;;;;;;10.20;6.72;;;;;;;;;;5091611;28;20416;-54
2021/04/09 04:41:53;;;;;;;11.57;7.33;;;;;;;;;;5091854;28;20176;-55
2021/04/09 04:44:19;;;;;;;13.17;7.40;;;;;;;;;;5091558;28;20447;-55
2021/04/09 04:46:46;;;;;;;9.63;7.93;;;;;;;;;;5091252;28;20439;-55
2021/04/09 04:49:12;;;;;;;11.68;7.88;;;;;;;;;;5091468;28;20177;-56
2021/04/09 04:51:39;;;;;;;10.73;7.70;;;;;;;;;;5090291;28;20178;-56
2021/04/09 04:54:05;;;;;;;13.95;7.43;;;;;;;;;;5091507;28;20170;-55
2021/04/09 04:56:31;;;;;;;9.80;7.27;;;;;;;;;;5091265;28;20553;-55
2021/04/09 04:58:57;;;;;;;11.23;7.50;;;;;;;;;;5091316;28;20462;-56
2021/04/09 05:01:23;;;;;;;13.63;7.27;;;;;;;;;;5091252;28;20435;-57
2021/04/09 05:03:48;;;;;;;11.13;7.35;;;;;;;;;;5091391;28;20891;-55
2021/04/09 05:06:15;;;;;;;9.70;7.53;;;;;;;;;;5090943;28;20212;-55
2021/04/09 05:08:41;;;;;;;12.00;7.50;;;;;;;;;;5090759;28;20444;-55
2021/04/09 05:11:08;;;;;;;11.57;7.60;;;;;;;;;;5091206;28;20558;-56
2021/04/09 05:13:34;;;;;;;9.23;6.85;;;;;;;;;;5091245;28;20423;-55
2021/04/09 05:16:00;;;;;;;10.50;6.93;;;;;;;;;;5090790;28;20637;-55
2021/04/09 05:18:26;;;;;;;11.20;7.50;;;;;;;;;;5091123;28;20427;-55
2021/04/09 05:20:51;;;;;;;12.40;8.30;;;;;;;;;;5090985;28;20409;-55
2021/04/09 05:23:17;;;;;;;15.43;9.37;;;;;;;;;;5091058;28;20404;-55
2021/04/09 05:25:43;;;;;;;9.90;6.73;;;;;;;;;;5090678;28;20890;-55
2021/04/09 05:28:09;;;;;;;13.80;7.88;;;;;;;;;;5090861;28;20451;-55
2021/04/09 05:30:35;;;;;;;15.83;7.67;;;;;;;;;;5090760;28;20637;-55
2021/04/09 05:33:01;;;;;;;11.40;7.30;;;;;;;;;;5091001;28;20922;-56
2021/04/09 05:35:27;;;;;;;10.17;6.73;;;;;;;;;;5090608;28;20399;-55
2021/04/09 05:37:53;;;;;;;19.63;7.60;;;;;;;;;;5090673;28;20407;-56
2021/04/09 05:40:19;;;;;;;12.32;8.18;;;;;;;;;;5090638;28;20404;-55
2021/04/09 05:42:46;;;;;;;9.38;7.25;;;;;;;;;;5091038;28;20219;-58
2021/04/09 05:45:13;;;;;;;9.88;6.78;;;;;;;;;;5090820;28;20219;-56
2021/04/09 05:47:39;;;;;;;11.30;7.35;;;;;;;;;;5090757;28;20577;-55
2021/04/09 05:50:05;;;;;;;9.73;7.40;;;;;;;;;;5090926;28;20172;-55
2021/04/09 05:52:31;;;;;;;9.27;7.10;;;;;;;;;;5090824;28;20400;-55
2021/04/09 05:54:57;;;;;;;10.80;6.70;;;;;;;;;;5090785;28;20169;-55
2021/04/09 05:57:23;;;;;;;10.40;7.67;;;;;;;;;;5090578;28;20406;-55
2021/04/09 05:59:49;;;;;;;8.97;6.90;;;;;;;;;;5090593;28;20447;-55
2021/04/09 06:02:15;;;;;;;9.97;7.43;;;;;;;;;;5090603;28;20442;-55
2021/04/09 06:04:41;;;;;;;18.70;7.70;;;;;;;;;;5090672;28;20407;-55
2021/04/09 06:07:07;;;;;;;11.32;7.35;;;;;;;;;;5090235;28;20529;-56
2021/04/09 06:09:32;;;;;;;11.20;8.13;;;;;;;;;;5090626;28;20178;-56
2021/04/09 06:11:58;;;;;;;12.27;7.50;;;;;;;;;;5090495;28;20397;-55
2021/04/09 06:14:28;;;;;;;11.13;7.30;;;;;;;;;;5090581;28;20423;-55
2021/04/09 06:16:54;;;;;;;15.88;7.80;;;;;;;;;;5090285;28;20403;-56
2021/04/09 06:19:20;;;;;;;11.67;6.90;;;;;;;;;;5090433;28;20189;-56
2021/04/09 06:21:46;;;;;;;16.70;7.90;;;;;;;;;;5092517;28;20404;-55
2021/04/09 06:24:12;;;;;;;10.70;6.80;;;;;;;;;;5094401;28;20405;-55
2021/04/09 06:26:38;;;;;;;9.60;7.00;;;;;;;;;;5094104;28;20471;-55
2021/04/09 06:29:04;;;;;;;10.83;6.33;;;;;;;;;;5094170;28;20429;-55
2021/04/09 06:31:30;;;;;;;10.97;6.33;;;;;;;;;;5094370;28;20428;-55
2021/04/09 06:33:56;;;;;;;10.97;7.27;;;;;;;;;;5094091;28;20400;-55
2021/04/09 06:36:22;;;;;;;8.90;6.57;;;;;;;;;;5093964;28;20395;-55
2021/04/09 06:38:49;;;;;;;10.90;7.13;;;;;;;;;;5093982;28;20420;-55
2021/04/09 06:41:15;;;;;;;8.93;6.37;;;;;;;;;;5094160;28;20162;-56
2021/04/09 06:43:41;;;;;;;11.50;6.60;;;;;;;;;;5093948;28;20986;-56
2021/04/09 06:46:08;;;;;;;9.23;6.33;;;;;;;;;;5093610;28;20419;-56
2021/04/09 06:48:34;;;;;;;11.00;6.50;;;;;;;;;;5093841;28;20451;-56
2021/04/09 06:51:01;;;;;;;10.70;6.23;;;;;;;;;;5093908;28;20391;-55
2021/04/09 06:53:27;;;;;;;10.00;6.43;;;;;;;;;;5093895;28;20885;-55
2021/04/09 06:55:53;;;;;;;7.17;5.90;;;;;;;;;;5093496;28;20404;-56
2021/04/09 06:58:20;;;;;;;9.93;6.40;;;;;;;;;;5093666;28;21078;-56
2021/04/09 07:00:50;;;;;;;8.30;6.53;;;;;;;;;;5093510;28;20762;-55
2021/04/09 07:03:16;;;;;;;7.40;5.90;;;;;;;;;;5093680;28;20439;-56
2021/04/09 07:05:42;;;;;;;7.63;6.27;;;;;;;;;;5093307;28;20496;-55
2021/04/09 07:08:08;;;;;;;7.53;5.83;;;;;;;;;;5093524;28;20449;-55
2021/04/09 07:10:34;;;;;;;11.30;5.93;;;;;;;;;;5093460;28;20405;-57
2021/04/09 07:13:03;;;;;;;9.93;6.23;;;;;;;;;;5093451;28;20434;-57
2021/04/09 07:15:35;;;;;;;10.60;7.23;;;;;;;;;;5093020;28;20395;-55
2021/04/09 07:18:03;;;;;;;7.43;6.03;;;;;;;;;;5093276;28;20973;-55
2021/04/09 07:20:32;;;;;;;10.23;5.87;;;;;;;;;;5093208;28;20403;-55
2021/04/09 07:22:59;;;;;;;9.07;6.30;;;;;;;;;;5093411;28;20415;-56
2021/04/09 07:25:26;;;;;;;15.70;6.63;;;;;;;;;;5092335;28;20407;-55
2021/04/09 07:28:08;;;;;;;8.40;5.80;;;;;;;;;;5092436;28;20803;-56
2021/04/09 07:30:34;;;;;;;8.67;6.20;;;;;;;;;;5092404;28;20916;-55
2021/04/09 07:33:04;;;;;;;9.10;6.53;;;;;;;;;;5092452;28;20400;-57
2021/04/09 07:35:30;;;;;;;9.50;7.10;;;;;;;;;;5092813;28;20417;-56
2021/04/09 07:38:00;;;;;;;9.90;6.40;;;;;;;;;;5093177;28;21148;-55
2021/04/09 07:40:33;;;;;;;12.40;6.77;;;;;;;;;;5092326;28;21141;-54
2021/04/09 07:43:00;;;;;;;8.87;6.80;;;;;;;;;;5093040;28;20396;-55
2021/04/09 07:45:27;;;;;;;9.00;6.00;;;;;;;;;;5091592;28;20417;-54
2021/04/09 07:47:56;;;;;;;8.50;6.40;;;;;;;;;;5092619;28;20458;-54
2021/04/09 07:50:42;;;;;;;10.73;6.90;;;;;;;;;;5092820;28;20894;-54
2021/04/09 07:53:10;;;;;;;14.73;6.80;;;;;;;;;;5092677;28;20400;-55
2021/04/09 07:55:36;;;;;;;9.47;6.90;;;;;;;;;;5092559;28;20398;-59
2021/04/09 07:58:15;;;;;;;13.07;6.77;;;;;;;;;;5092460;28;20780;-54
2021/04/09 08:00:41;;;;;;;13.33;7.93;;;;;;;;;;5092575;28;20415;-59
2021/04/09 08:03:07;;;;;;;10.40;6.50;;;;;;;;;;5092593;28;20467;-60
2021/04/09 08:05:33;;;;;;;10.17;6.97;;;;;;;;;;5080023;28;20979;-55
2021/04/09 08:07:59;;;;;;;9.50;6.50;;;;;;;;;;5071754;28;20463;-57
2021/04/09 08:10:29;;;;;;;11.70;7.27;;;;;;;;;;5072112;28;20535;-55
2021/04/09 08:12:56;;;;;;;9.10;6.77;;;;;;;;;;5071830;28;20429;-53
2021/04/09 08:15:26;;;;;;;8.50;6.70;;;;;;;;;;5071728;28;20379;-55
2021/04/09 08:18:12;;;;;;;12.00;6.50;;;;;;;;;;5071642;28;20797;-55
2021/04/09 08:20:39;;;;;;;10.20;6.80;;;;;;;;;;5071033;28;20739;-54
2021/04/09 08:23:12;;;;;;;8.77;6.87;;;;;;;;;;5071653;28;20379;-56
2021/04/09 08:25:39;;;;;;;9.33;7.03;;;;;;;;;;5071661;28;20407;-52
2021/04/09 08:28:06;;;;;;;20.30;7.60;;;;;;;;;;5071424;28;20507;-54
2021/04/09 08:30:32;;;;;;;12.23;6.40;;;;;;;;;;5071865;28;20405;-52
2021/04/09 08:32:59;;;;;;;10.60;7.00;;;;;;;;;;5071475;28;20401;-52
2021/04/09 08:35:26;;;;;;;8.73;7.40;;;;;;;;;;5053791;28;20416;-56
2021/04/09 08:37:54;;;;;;;11.40;7.53;;;;;;;;;;5071536;28;20941;-53
2021/04/09 08:40:21;;;;;;;9.03;6.77;;;;;;;;;;5071370;28;20821;-56
2021/04/09 08:42:55;;;;;;;12.20;7.03;;;;;;;;;;5038375;28;20449;-54
2021/04/09 08:45:21;;;;;;;8.30;6.10;;;;;;;;;;5070330;28;20434;-52
2021/04/09 08:47:53;;;;;;;10.50;7.03;;;;;;;;;;5071216;28;20481;-52
2021/04/09 08:50:19;;;;;;;8.87;7.73;;;;;;;;;;5071158;28;20412;-56
2021/04/09 08:52:46;;;;;;;11.97;6.97;;;;;;;;;;5071301;28;20469;-52
2021/04/09 08:55:13;;;;;;;8.33;5.33;;;;;;;;;;5070833;28;20404;-55
2021/04/09 08:57:42;;;;;;;10.00;6.20;;;;;;;;;;5071080;28;20404;-55
2021/04/09 09:00:08;;;;;;;11.87;6.93;;;;;;;;;;5070849;28;20402;-56
2021/04/09 09:02:40;;;;;;;10.97;6.70;;;;;;;;;;5071025;28;20440;-57
2021/04/09 09:05:07;;;;;;;8.13;6.20;;;;;;;;;;5070698;28;20400;-56
2021/04/09 09:07:48;;;;;;;11.37;7.37;;;;;;;;;;5070985;28;20444;-52
2021/04/09 09:10:20;;;;;;;8.43;6.57;;;;;;;;;;5070837;28;20793;-55
2021/04/09 09:13:15;;;;;;;10.90;6.53;;;;;;;;;;5071089;28;20406;-55
2021/04/09 09:15:44;;;;;;;8.60;7.00;;;;;;;;;;5070583;28;20395;-55
2021/04/09 09:18:20;;;;;;;11.73;7.57;;;;;;;;;;5070821;28;20420;-53
2021/04/09 09:21:04;;;;;;;7.67;5.70;;;;;;;;;;5069784;28;20394;-52
2021/04/09 09:23:48;;;;;;;10.30;7.50;;;;;;;;;;5071267;28;20403;-52
2021/04/09 09:26:32;;;;;;;11.77;7.20;;;;;;;;;;5070504;28;20745;-52
2021/04/09 09:29:09;;;;;;;8.97;6.43;;;;;;;;;;5070119;28;20420;-52
2021/04/09 09:31:36;;;;;;;7.70;5.67;;;;;;;;;;5070862;28;20378;-57
2021/04/09 09:34:17;;;;;;;6.70;5.60;;;;;;;;;;5070820;28;20412;-54
2021/04/09 09:36:58;;;;;;;9.80;5.80;;;;;;;;;;5070556;28;20386;-53
2021/04/09 09:39:33;;;;;;;13.00;6.23;;;;;;;;;;5070778;28;20479;-54
2021/04/09 09:42:00;;;;;;;6.40;5.80;;;;;;;;;;5070607;28;20470;-58
2021/04/09 09:44:30;;;;;;;9.53;6.70;;;;;;;;;;5070732;28;20404;-53
2021/04/09 09:46:56;;;;;;;12.50;7.07;;;;;;;;;;5070226;28;20443;-53
2021/04/09 09:49:22;;;;;;;7.87;6.23;;;;;;;;;;5070499;28;20428;-55
2021/04/09 09:51:49;;;;;;;6.93;6.10;;;;;;;;;;5070312;28;20425;-52
2021/04/09 09:54:21;;;;;;;8.73;6.07;;;;;;;;;;5070567;28;20387;-52
2021/04/09 09:56:47;;;;;;;12.20;6.70;;;;;;;;;;5073892;28;20803;-55
2021/04/09 09:59:17;;;;;;;6.97;6.20;;;;;;;;;;5074488;28;20437;-58
2021/04/09 10:02:10;;;;;;;10.80;6.53;;;;;;;;;;5074267;28;20404;-58
2021/04/09 10:04:36;;;;;;;7.40;6.27;;;;;;;;;;5069937;28;20510;-55
2021/04/09 10:07:07;;;;;;;6.67;5.60;;;;;;;;;;5073956;28;20827;-55
2021/04/09 10:09:33;;;;;;;9.20;5.87;;;;;;;;;;5056310;28;20493;-53
2021/04/09 10:12:00;;;;;;;11.80;6.70;;;;;;;;;;5074218;28;20412;-52
2021/04/09 10:14:29;;;;;;;11.37;7.10;;;;;;;;;;5074078;28;20766;-57
2021/04/09 10:16:58;;;;;;;10.80;7.27;;;;;;;;;;5073882;28;20410;-52
2021/04/09 10:19:24;;;;;;;9.70;6.13;;;;;;;;;;5073260;28;20432;-56
2021/04/09 10:21:52;;;;;;;6.23;5.63;;;;;;;;;;5073932;28;20405;-55
2021/04/09 10:24:19;;;;;;;10.17;7.07;;;;;;;;;;5074326;28;20714;-52
2021/04/09 10:26:55;;;;;;;11.00;7.00;;;;;;;;;;5073496;28;20418;-52
2021/04/09 10:29:25;;;;;;;8.90;6.90;;;;;;;;;;5096180;28;20522;-52
2021/04/09 10:31:52;;;;;;;7.67;6.53;;;;;;;;;;5096142;28;20390;-54
2021/04/09 10:34:32;;;;;;;8.63;6.90;;;;;;;;;;5094084;28;20374;-53
2021/04/09 10:36:59;;;;;;;8.93;6.90;;;;;;;;;;5094818;28;20382;-57
2021/04/09 10:39:26;;;;;;;11.30;7.10;;;;;;;;;;5095533;28;20427;-53
2021/04/09 10:41:53;;;;;;;9.47;6.60;;;;;;;;;;5112379;28;20446;-56
2021/04/09 10:44:20;;;;;;;10.20;7.97;;;;;;;;;;5094189;28;20407;-53
2021/04/09 10:47:13;;;;;;;8.50;7.00;;;;;;;;;;5083480;28;20504;-55
2021/04/09 10:49:39;;;;;;;13.13;7.20;;;;;;;;;;5112670;28;20914;-58
2021/04/09 10:52:07;;;;;;;13.07;7.10;;;;;;;;;;5113876;28;20373;-55
2021/04/09 10:54:34;;;;;;;9.70;7.03;;;;;;;;;;5114255;28;20391;-59
2021/04/09 10:57:04;;;;;;;13.40;7.57;;;;;;;;;;5113759;28;20767;-52
2021/04/09 10:59:32;;;;;;;12.60;7.00;;;;;;;;;;5097049;28;20473;-56
2021/04/09 11:01:59;;;;;;;8.63;7.20;;;;;;;;;;5096880;28;20510;-57
2021/04/09 11:04:26;;;;;;;8.50;7.13;;;;;;;;;;5109997;28;20460;-56
2021/04/09 11:06:53;;;;;;;8.40;6.77;;;;;;;;;;5090734;28;20447;-56
2021/04/09 11:09:19;;;;;;;10.90;7.10;;;;;;;;;;5092437;28;20462;-56
2021/04/09 11:11:45;;;;;;;8.20;6.30;;;;;;;;;;5091781;28;20783;-54
2021/04/09 11:14:16;;;;;;;7.93;7.03;;;;;;;;;;5091367;28;20403;-55
2021/04/09 11:17:12;;;;;;;8.73;7.40;;;;;;;;;;5107296;28;20402;-56
2021/04/09 11:19:38;;;;;;;8.90;7.83;;;;;;;;;;5093426;28;20405;-55
2021/04/09 11:22:08;;;;;;;13.17;8.67;;;;;;;;;;5112401;28;20782;-56
2021/04/09 11:24:36;;;;;;;9.73;7.33;;;;;;;;;;5112643;28;20442;-56
2021/04/09 11:27:03;;;;;;;11.13;7.60;;;;;;;;;;5094593;28;20460;-56
2021/04/09 11:29:29;;;;;;;9.83;7.30;;;;;;;;;;5113075;28;20505;-55
2021/04/09 11:32:13;;;;;;;10.00;8.00;;;;;;;;;;5113482;28;20487;-56
2021/04/09 11:34:41;;;;;;;8.50;7.20;;;;;;;;;;5104852;28;20415;-52
2021/04/09 11:37:07;;;;;;;8.60;6.60;;;;;;;;;;5071296;28;20388;-52
2021/04/09 11:39:33;;;;;;;9.43;6.33;;;;;;;;;;5071625;28;20424;-58
2021/04/09 11:42:04;;;;;;;11.70;6.07;;;;;;;;;;5072054;28;20437;-53
2021/04/09 11:44:31;;;;;;;9.00;6.90;;;;;;;;;;5072122;28;20435;-59
2021/04/09 11:47:20;;;;;;;12.23;6.70;;;;;;;;;;5071802;28;20789;-54
2021/04/09 11:49:47;;;;;;;10.33;7.10;;;;;;;;;;5083229;28;20847;-54
2021/04/09 11:52:14;;;;;;;9.40;7.73;;;;;;;;;;5092239;28;20399;-53
2021/04/09 11:54:41;;;;;;;9.13;6.50;;;;;;;;;;5091871;28;20395;-53
2021/04/09 11:57:26;;;;;;;10.40;7.17;;;;;;;;;;5091475;28;20718;-53
2021/04/09 11:59:52;;;;;;;9.03;7.60;;;;;;;;;;5091669;28;20461;-52
2021/04/09 12:02:20;;;;;;;7.33;6.43;;;;;;;;;;5091732;28;20403;-54
2021/04/09 12:04:46;;;;;;;7.77;6.53;;;;;;;;;;5092077;28;20398;-55
2021/04/09 12:07:23;;;;;;;7.70;6.90;;;;;;;;;;5091048;28;20417;-55
2021/04/09 12:09:51;;;;;;;9.80;7.40;;;;;;;;;;5091787;28;20506;-56
2021/04/09 12:12:18;;;;;;;10.10;7.33;;;;;;;;;;5092133;28;20363;-52
2021/04/09 12:14:48;;;;;;;8.33;6.20;;;;;;;;;;5091646;28;20764;-54
2021/04/09 12:17:15;;;;;;;9.63;6.50;;;;;;;;;;5090641;28;20418;-53
2021/04/09 12:19:42;;;;;;;7.33;6.40;;;;;;;;;;5091985;28;20434;-52
2021/04/09 12:22:08;;;;;;;11.70;6.80;;;;;;;;;;5091894;28;20424;-57
2021/04/09 12:24:34;;;;;;;8.03;6.60;;;;;;;;;;5092129;28;20771;-55
2021/04/09 12:27:01;;;;;;;8.30;6.93;;;;;;;;;;5091464;28;20450;-55
2021/04/09 12:29:27;;;;;;;11.63;7.47;;;;;;;;;;5091853;28;20419;-56
2021/04/09 12:31:53;;;;;;;10.00;7.13;;;;;;;;;;5091645;28;20578;-57
2021/04/09 12:34:19;;;;;;;7.63;6.73;;;;;;;;;;5091845;28;20461;-53
2021/04/09 12:36:45;;;;;;;7.80;6.53;;;;;;;;;;5091291;28;20433;-58
2021/04/09 12:39:16;;;;;;;6.63;5.93;;;;;;;;;;5091817;28;20415;-55
2021/04/09 12:41:43;;;;;;;11.13;6.53;;;;;;;;;;5090134;28;20428;-53
2021/04/09 12:44:10;;;;;;;9.93;7.70;;;;;;;;;;5090431;28;20730;-57
2021/04/09 12:46:36;;;;;;;9.40;6.73;;;;;;;;;;5090175;28;20397;-52
2021/04/09 12:49:03;;;;;;;7.57;6.40;;;;;;;;;;5089833;28;20423;-52
2021/04/09 12:51:30;;;;;;;7.20;6.10;;;;;;;;;;5090415;28;20408;-55
2021/04/09 12:53:57;;;;;;;7.30;6.30;;;;;;;;;;5090323;28;20404;-52
2021/04/09 12:56:23;;;;;;;10.93;6.30;;;;;;;;;;5089786;28;20436;-52
2021/04/09 12:58:50;;;;;;;9.00;6.17;;;;;;;;;;5091443;28;20414;-58
2021/04/09 13:01:16;;;;;;;6.93;6.20;;;;;;;;;;5090136;28;20802;-53
2021/04/09 13:03:43;;;;;;;6.90;6.20;;;;;;;;;;5090056;28;20411;-53
2021/04/09 13:06:12;;;;;;;6.60;5.83;;;;;;;;;;5090118;28;20797;-52
2021/04/09 13:08:39;;;;;;;9.10;6.50;;;;;;;;;;5090131;28;20549;-54
2021/04/09 13:11:07;;;;;;;6.40;5.20;;;;;;;;;;5090213;28;20434;-55
2021/04/09 13:13:35;;;;;;;8.20;6.53;;;;;;;;;;5091816;28;20808;-52
2021/04/09 13:16:02;;;;;;;8.50;6.33;;;;;;;;;;5090715;28;20379;-55
2021/04/09 13:18:29;;;;;;;7.87;5.87;;;;;;;;;;5090171;28;20410;-60
2021/04/09 13:20:57;;;;;;;8.80;5.20;;;;;;;;;;5090021;28;20416;-53
2021/04/09 13:23:24;;;;;;;11.60;6.60;;;;;;;;;;5089931;28;20414;-54
2021/04/09 13:25:51;;;;;;;7.47;5.37;;;;;;;;;;5090117;28;20419;-54
2021/04/09 13:28:18;;;;;;;9.63;5.77;;;;;;;;;;5090061;28;20455;-54
2021/04/09 13:30:47;;;;;;;8.63;6.50;;;;;;;;;;5089203;28;20416;-54
2021/04/09 13:33:14;;;;;;;8.90;6.17;;;;;;;;;;5090464;28;20374;-54
2021/04/09 13:35:41;;;;;;;7.97;5.60;;;;;;;;;;5073625;28;21026;-54
2021/04/09 13:38:11;;;;;;;10.37;6.33;;;;;;;;;;5089413;28;20966;-54
2021/04/09 13:40:37;;;;;;;6.00;5.40;;;;;;;;;;5074110;28;20423;-54
2021/04/09 13:43:04;;;;;;;6.40;5.77;;;;;;;;;;5089963;28;20399;-54
2021/04/09 13:45:31;;;;;;;9.87;6.40;;;;;;;;;;5089360;28;20447;-54
2021/04/09 13:47:58;;;;;;;8.03;6.77;;;;;;;;;;5089707;28;20453;-54
2021/04/09 13:50:27;;;;;;;6.20;5.60;;;;;;;;;;5091256;28;20417;-54
2021/04/09 13:52:54;;;;;;;6.47;5.37;;;;;;;;;;5090798;28;20430;-55
2021/04/09 13:55:21;;;;;;;7.67;6.53;;;;;;;;;;5073126;28;20410;-54
2021/04/09 13:57:47;;;;;;;7.80;6.47;;;;;;;;;;5089590;28;20390;-54
2021/04/09 14:00:14;;;;;;;6.97;6.03;;;;;;;;;;5090824;28;20390;-57
2021/04/09 14:02:41;;;;;;;7.70;5.07;;;;;;;;;;5091303;28;20396;-54
2021/04/09 14:05:08;;;;;;;7.63;5.70;;;;;;;;;;5088776;28;20426;-54
2021/04/09 14:07:34;;;;;;;7.07;5.43;;;;;;;;;;5078572;28;20522;-54
2021/04/09 14:10:00;;;;;;;8.13;5.63;;;;;;;;;;5090800;28;20525;-55
2021/04/09 14:12:26;;;;;;;5.63;5.03;;;;;;;;;;5089358;28;20378;-54
2021/04/09 14:14:53;;;;;;;6.00;5.17;;;;;;;;;;5089318;28;20397;-54
2021/04/09 14:17:21;;;;;;;5.83;5.20;;;;;;;;;;5090524;28;20385;-54
2021/04/09 14:19:47;;;;;;;5.23;4.67;;;;;;;;;;5090371;28;20556;-56
2021/04/09 14:22:13;;;;;;;6.90;5.43;;;;;;;;;;5090151;28;20970;-54
2021/04/09 14:24:40;;;;;;;7.13;5.97;;;;;;;;;;5090553;28;20861;-54
2021/04/09 14:27:07;;;;;;;6.60;5.40;;;;;;;;;;5089754;28;20459;-54
2021/04/09 14:29:36;;;;;;;5.90;5.33;;;;;;;;;;5089007;28;20427;-53
2021/04/09 14:32:02;;;;;;;6.00;5.40;;;;;;;;;;5089833;28;20399;-53
2021/04/09 14:34:28;;;;;;;5.90;5.40;;;;;;;;;;5090291;28;20887;-54
2021/04/09 14:36:54;;;;;;;6.63;5.40;;;;;;;;;;5088404;28;20390;-55
2021/04/09 14:39:20;;;;;;;6.33;5.73;;;;;;;;;;5090028;28;20390;-55
2021/04/09 14:41:46;;;;;;;8.13;6.00;;;;;;;;;;5090258;28;20740;-57